Terminal Aerodrome Forecast
Issued by NWS Wilmington, OH

Current Version | Previous Version | Graphics & Text | Print | Product List | Glossary On
Versions: 1 2 3 4 5 6 7 8 9 10 11 12 13 14 15 16 17 18 19 20 21
000
FTUS41 KILN 210300 AAA
TAFCMH
TAF AMD
KCMH 210306Z 2103/2124 25009KT P6SM SCT060
     FM210900 26005KT P6SM SKC
     FM211500 23004KT P6SM SCT250=

USA.gov is the U.S. government's official web portal to all federal, state and local government web resources and services.